^^
Grace C. Lehan Memorial Weather Station Historical Data
Daily Summary for July 11, 2021 Units:  Metric    English   Both
Daily Weekly Monthly Yearly
  High: Low: Average:
Temperature: 33 °C 22.8 °C 26.6 °C
Dew Point: 25.6 °C 21.4 °C 23.3 °C
Humidity: 94% 62.3% 83%
Wind Speed: 6.4km/h 0km/h 0.3km/h
Wind Gust: 16.1km/h - -
Wind- - SW
Pressure: 1016.5 hPa 1012.1 hPa -
Precipitation: 0 mm    
 
 
Tabular Data for July 11, 2021
Time Temperature Dew Point Pressure Wind Wind Speed Wind Gust Humidity Rainfall Rate (Hourly) solar
00:09 24.3 °C 22.7 °C 1016.1 hPa Calm     91% 0 mm 0 W/m2
00:14 24.3 °C 22.7 °C 1016.1 hPa Calm     91% 0 mm 0 W/m2
00:19 24.3 °C 22.7 °C 1016.1 hPa Calm     91% 0 mm 0 W/m2
00:24 24.2 °C 22.7 °C 1016.1 hPa Calm     91% 0 mm 0 W/m2
00:29 24.2 °C 22.7 °C 1016.1 hPa Calm     91% 0 mm 0 W/m2
00:34 24.2 °C 22.7 °C 1016.1 hPa Calm     91% 0 mm 0 W/m2
00:39 24.2 °C 22.6 °C 1016.5 hPa Calm     91% 0 mm 0 W/m2
00:44 24.2 °C 22.6 °C 1016.5 hPa Calm     91% 0 mm 0 W/m2
00:49 24.2 °C 22.6 °C 1016.5 hPa Calm     91% 0 mm 0 W/m2
00:54 24.1 °C 22.6 °C 1016.1 hPa Calm     91% 0 mm 0 W/m2
00:59 24.1 °C 22.6 °C 1016.1 hPa Calm   1.6 km/h 91% 0 mm 0 W/m2
01:04 24.1 °C 22.6 °C 1016.1 hPa Calm   1.6 km/h 91% 0 mm 0 W/m2
01:09 24.1 °C 22.5 °C 1016.1 hPa Calm     91% 0 mm 0 W/m2
01:14 24.1 °C 22.5 °C 1016.1 hPa Calm     91% 0 mm 0 W/m2
01:19 24.1 °C 22.5 °C 1016.1 hPa Calm   1.6 km/h 91% 0 mm 0 W/m2
01:24 24 °C 22.4 °C 1015.8 hPa Calm   1.6 km/h 91% 0 mm 0 W/m2
01:29 23.9 °C 22.4 °C 1015.8 hPa Calm   1.6 km/h 91% 0 mm 0 W/m2
01:34 23.9 °C 22.4 °C 1015.8 hPa Calm   1.6 km/h 91.2% 0 mm 0 W/m2
01:39 23.9 °C 22.5 °C 1015.8 hPa Calm     92% 0 mm 0 W/m2
01:44 23.8 °C 22.5 °C 1015.5 hPa Calm   1.6 km/h 92% 0 mm 0 W/m2
01:49 23.8 °C 22.4 °C 1015.5 hPa Calm   1.6 km/h 92% 0 mm 0 W/m2
01:54 23.8 °C 22.4 °C 1015.5 hPa Calm   1.6 km/h 92% 0 mm 0 W/m2
01:59 23.7 °C 22.3 °C 1015.5 hPa Calm   1.6 km/h 92% 0 mm 0 W/m2
02:04 23.7 °C 22.3 °C 1015.5 hPa Calm   1.6 km/h 92% 0 mm 0 W/m2
02:09 23.6 °C 22.3 °C 1015.5 hPa Calm     92% 0 mm 0 W/m2
02:14 23.6 °C 22.2 °C 1015.5 hPa Calm     92% 0 mm 0 W/m2
02:19 23.6 °C 22.2 °C 1015.5 hPa Calm     92% 0 mm 0 W/m2
02:24 23.5 °C 22.1 °C 1015.5 hPa Calm     92% 0 mm 0 W/m2
02:29 23.4 °C 22.1 °C 1015.5 hPa Calm     92% 0 mm 0 W/m2
02:34 23.4 °C 22 °C 1015.5 hPa Calm     92% 0 mm 0 W/m2
02:39 23.3 °C 21.9 °C 1015.8 hPa Calm     92% 0 mm 0 W/m2
02:44 23.3 °C 21.9 °C 1015.8 hPa Calm     92% 0 mm 0 W/m2
02:49 23.2 °C 21.9 °C 1015.5 hPa Calm     92% 0 mm 0 W/m2
02:54 23.2 °C 21.8 °C 1015.5 hPa Calm     92% 0 mm 0 W/m2
02:59 23.2 °C 21.8 °C 1015.5 hPa Calm     92% 0 mm 0 W/m2
03:04 23.1 °C 21.8 °C 1015.5 hPa Calm     92% 0 mm 0 W/m2
03:09 23.1 °C 21.9 °C 1015.5 hPa Calm     92.9% 0 mm 0 W/m2
03:14 23.1 °C 21.9 °C 1015.5 hPa Calm     93% 0 mm 0 W/m2
03:19 23.1 °C 21.9 °C 1015.5 hPa Calm     93% 0 mm 0 W/m2
03:24 23.1 °C 21.8 °C 1015.5 hPa Calm     93% 0 mm 0 W/m2
03:29 23 °C 21.7 °C 1015.8 hPa Calm   1.6 km/h 92.2% 0 mm 0 W/m2
03:34 23 °C 21.6 °C 1015.5 hPa Calm   1.6 km/h 92% 0 mm 0 W/m2
03:39 22.9 °C 21.6 °C 1015.5 hPa Calm     92% 0 mm 0 W/m2
03:44 22.9 °C 21.6 °C 1015.5 hPa Calm     92% 0 mm 0 W/m2
03:49 22.9 °C 21.5 °C 1015.5 hPa Calm     92% 0 mm 0 W/m2
03:54 22.8 °C 21.4 °C 1015.5 hPa Calm     92% 0 mm 0 W/m2
03:59 22.8 °C 21.5 °C 1015.5 hPa Calm     92.2% 0 mm 0 W/m2
04:09 22.8 °C 21.7 °C 1015.5 hPa Calm     93% 0 mm 0 W/m2
04:14 22.8 °C 21.6 °C 1015.5 hPa Calm     93% 0 mm 0 W/m2
04:19 22.8 °C 21.6 °C 1015.5 hPa Calm   3.2 km/h 93% 0 mm 0 W/m2
04:24 22.8 °C 21.6 °C 1015.5 hPa Calm   3.2 km/h 93% 0 mm 0 W/m2
04:29 22.8 °C 21.6 °C 1015.5 hPa Calm   3.2 km/h 93% 0 mm 0 W/m2
04:34 22.8 °C 21.6 °C 1015.5 hPa Calm   3.2 km/h 93% 0 mm 0 W/m2
04:39 22.8 °C 21.6 °C 1015.5 hPa Calm   3.2 km/h 93% 0 mm 0 W/m2
04:44 22.8 °C 21.6 °C 1015.1 hPa Calm   3.2 km/h 93% 0 mm 0 W/m2
04:49 22.8 °C 21.6 °C 1015.1 hPa Calm   3.2 km/h 93% 0 mm 0 W/m2
04:54 22.8 °C 21.7 °C 1015.1 hPa Calm   3.2 km/h 93% 0 mm 0 W/m2
04:59 22.8 °C 21.7 °C 1015.1 hPa Calm   3.2 km/h 93% 0 mm 0 W/m2
05:04 22.8 °C 21.7 °C 1015.1 hPa Calm   3.2 km/h 93% 0 mm 0 W/m2
05:09 22.8 °C 21.7 °C 1015.1 hPa Calm   1.6 km/h 93% 0 mm 0 W/m2
05:14 22.9 °C 21.7 °C 1015.1 hPa Calm   1.6 km/h 93% 0 mm 0 W/m2
05:19 22.9 °C 21.7 °C 1015.1 hPa Calm   1.6 km/h 93% 0 mm 0 W/m2
05:24 22.9 °C 21.7 °C 1015.1 hPa Calm   1.6 km/h 93% 0 mm 0 W/m2
05:29 22.9 °C 21.7 °C 1015.1 hPa Calm   1.6 km/h 93% 0 mm 0 W/m2
05:34 22.9 °C 21.7 °C 1015.1 hPa Calm   1.6 km/h 93% 0 mm 0 W/m2
05:39 22.9 °C 21.7 °C 1015.1 hPa Calm     93% 0 mm 0 W/m2
05:44 22.9 °C 21.7 °C 1015.1 hPa Calm     93% 0 mm 0 W/m2
05:49 22.9 °C 21.7 °C 1015.1 hPa Calm     93% 0 mm 0 W/m2
05:54 22.8 °C 21.7 °C 1015.1 hPa Calm     93% 0 mm 0 W/m2
05:59 22.8 °C 21.7 °C 1015.1 hPa Calm     93% 0 mm 0 W/m2
06:04 22.8 °C 21.6 °C 1015.1 hPa Calm     93% 0 mm 5 W/m2
06:09 22.8 °C 21.6 °C 1015.5 hPa Calm     93% 0 mm 9 W/m2
06:14 22.8 °C 21.8 °C 1015.5 hPa Calm     94% 0 mm 16 W/m2
06:19 22.8 °C 21.8 °C 1015.5 hPa Calm     94% 0 mm 18 W/m2
06:24 22.8 °C 21.8 °C 1015.5 hPa Calm     94% 0 mm 18 W/m2
06:29 22.8 °C 21.8 °C 1015.1 hPa Calm     94% 0 mm 18 W/m2
06:34 22.9 °C 21.9 °C 1015.1 hPa Calm     94% 0 mm 23 W/m2
06:39 22.9 °C 21.9 °C 1015.5 hPa Calm     94% 0 mm 26 W/m2
06:44 22.9 °C 21.9 °C 1015.5 hPa Calm     94% 0 mm 33 W/m2
06:49 22.9 °C 21.9 °C 1015.5 hPa Calm     94% 0 mm 47 W/m2
06:54 23 °C 22 °C 1015.5 hPa SSW 0.2 km/h 3.2 km/h 94% 0 mm 58 W/m2
06:59 23.1 °C 22.1 °C 1015.5 hPa Calm   3.2 km/h 94% 0 mm 76 W/m2
07:04 23.1 °C 22.1 °C 1015.5 hPa Calm   3.2 km/h 94% 0 mm 76 W/m2
07:09 23.2 °C 22.2 °C 1015.5 hPa Calm     94% 0 mm 65 W/m2
07:14 23.3 °C 22.1 °C 1015.5 hPa Calm   1.6 km/h 93.1% 0 mm 62 W/m2
07:19 23.3 °C 22.1 °C 1015.5 hPa SSW 0.2 km/h 3.2 km/h 93% 0 mm 54 W/m2
07:24 23.4 °C 22.2 °C 1015.5 hPa SSW 0.2 km/h 3.2 km/h 93% 0 mm 54 W/m2
07:29 23.4 °C 22.2 °C 1015.1 hPa Calm   3.2 km/h 93% 0 mm 54 W/m2
07:34 23.4 °C 22.1 °C 1015.1 hPa Calm   3.2 km/h 92.3% 0 mm 49 W/m2
07:39 23.5 °C 22.1 °C 1015.1 hPa Calm     92% 0 mm 53 W/m2
07:44 23.6 °C 22.2 °C 1015.1 hPa Calm   1.6 km/h 92% 0 mm 58 W/m2
07:49 23.6 °C 22.3 °C 1015.1 hPa Calm   1.6 km/h 92% 0 mm 72 W/m2
07:54 23.7 °C 22.1 °C 1015.1 hPa Calm   1.6 km/h 91% 0 mm 102 W/m2
07:59 23.8 °C 22.2 °C 1015.1 hPa SSW 0.2 km/h 3.2 km/h 91% 0 mm 109 W/m2
08:00 23.8 °C 22.3 °C 1015.1 hPa Calm   3.2 km/h 91% 0 mm 88 W/m2
08:09 24 °C 22.3 °C 1015.1 hPa Calm     90.5% 0 mm 130 W/m2
08:14 24.1 °C 22.3 °C 1015.1 hPa Calm     90% 0 mm 76 W/m2
08:19 24.2 °C 22.4 °C 1014.8 hPa Calm     89.6% 0 mm 84 W/m2
08:24 24.3 °C 22.4 °C 1014.8 hPa Calm     89.1% 0 mm 325 W/m2
08:29 24.6 °C 22.7 °C 1014.8 hPa Calm     89% 0 mm 350 W/m2
08:34 25.1 °C 22.9 °C 1014.8 hPa Calm     88.1% 0 mm 373 W/m2
08:39 25.5 °C 22.9 °C 1014.8 hPa Calm   1.6 km/h 85.7% 0 mm 404 W/m2
08:44 25.8 °C 22.9 °C 1014.8 hPa Calm   1.6 km/h 84.2% 0 mm 420 W/m2
08:49 26.2 °C 23.1 °C 1014.8 hPa Calm   1.6 km/h 83.2% 0 mm 441 W/m2
08:54 26.6 °C 23.3 °C 1015.1 hPa SSW 0.2 km/h 4.8 km/h 82% 0 mm 459 W/m2
08:59 27 °C 23.6 °C 1015.1 hPa Calm   4.8 km/h 81.6% 0 mm 464 W/m2
09:04 27.5 °C 23.9 °C 1015.1 hPa Calm   4.8 km/h 80.8% 0 mm 480 W/m2
09:09 28 °C 23.9 °C 1015.1 hPa WSW 1.4 km/h 16.1 km/h 78.3% 0 mm 517 W/m2
09:14 28.4 °C 24 °C 1015.1 hPa Calm   16.1 km/h 77.2% 0 mm 561 W/m2
09:19 28.7 °C 24.1 °C 1015.1 hPa West 1.3 km/h 16.1 km/h 76.1% 0 mm 622 W/m2
09:24 28.9 °C 23.9 °C 1015.1 hPa WSW 1.4 km/h 16.1 km/h 74.6% 0 mm 622 W/m2
09:29 28.8 °C 23.6 °C 1015.1 hPa WSW 0.6 km/h 16.1 km/h 73.4% 0 mm 167 W/m2
09:34 28.7 °C 23.9 °C 1015.1 hPa SW 1 km/h 16.1 km/h 75.2% 0 mm 596 W/m2
09:39 28.7 °C 23.8 °C 1015.1 hPa SW 0.5 km/h 9.7 km/h 75% 0 mm 538 W/m2
09:44 28.8 °C 23.9 °C 1015.1 hPa SW 0.2 km/h 9.7 km/h 75% 0 mm 612 W/m2
09:49 29.1 °C 24.1 °C 1015.1 hPa SW 0.6 km/h 9.7 km/h 74.7% 0 mm 621 W/m2
09:54 29.4 °C 24 °C 1015.1 hPa SW 1.3 km/h 9.7 km/h 72.8% 0 mm 650 W/m2
09:59 29.6 °C 24.1 °C 1015.1 hPa SW 1.1 km/h 9.7 km/h 72.4% 0 mm 661 W/m2
10:04 29.7 °C 24.1 °C 1015.5 hPa SW 0.8 km/h 9.7 km/h 71.7% 0 mm 635 W/m2
10:09 29.8 °C 24 °C 1015.5 hPa SW 0.6 km/h 6.4 km/h 71.1% 0 mm 650 W/m2
10:14 30 °C 24.4 °C 1015.5 hPa SW 0.2 km/h 6.4 km/h 71.9% 0 mm 628 W/m2
10:19 30.3 °C 24.4 °C 1015.1 hPa Calm   6.4 km/h 70.9% 0 mm 679 W/m2
10:24 30.6 °C 24.6 °C 1015.1 hPa WSW 1.1 km/h 9.7 km/h 70.3% 0 mm 691 W/m2
10:29 30.7 °C 24.5 °C 1015.1 hPa West 0.8 km/h 9.7 km/h 69.5% 0 mm 710 W/m2
10:34 30.9 °C 24.3 °C 1015.1 hPa SW 1.1 km/h 9.7 km/h 68.2% 0 mm 712 W/m2
10:39 31.1 °C 24.6 °C 1015.1 hPa WSW 0.6 km/h 8 km/h 68.6% 0 mm 733 W/m2
10:44 31.4 °C 24.8 °C 1015.1 hPa WSW 1 km/h 8 km/h 68.1% 0 mm 742 W/m2
10:49 31.5 °C 24.3 °C 1015.1 hPa SW 1.6 km/h 8 km/h 65.8% 0 mm 784 W/m2
10:54 31.6 °C 24.4 °C 1014.8 hPa SW 1.1 km/h 8 km/h 66% 0 mm 823 W/m2
10:59 31.7 °C 24.4 °C 1014.8 hPa SW 2.3 km/h 11.3 km/h 65.5% 0 mm 823 W/m2
11:04 31.9 °C 24.5 °C 1014.8 hPa WSW 1.9 km/h 11.3 km/h 65.2% 0 mm 759 W/m2
11:09 32.1 °C 24.7 °C 1014.8 hPa WSW 1.6 km/h 9.7 km/h 65.3% 0 mm 770 W/m2
11:14 32.2 °C 24.7 °C 1014.8 hPa SW 3.1 km/h 11.3 km/h 64.4% 0 mm 780 W/m2
11:19 32.3 °C 24.6 °C 1014.8 hPa SW 2.9 km/h 11.3 km/h 64% 0 mm 796 W/m2
11:24 32.3 °C 24.8 °C 1014.8 hPa SW 2.6 km/h 11.3 km/h 64.6% 0 mm 786 W/m2
11:29 32.3 °C 24.6 °C 1014.4 hPa SW 1.1 km/h 11.3 km/h 64% 0 mm 782 W/m2
11:34 32.3 °C 24.4 °C 1014.4 hPa SW 0.3 km/h 11.3 km/h 63.4% 0 mm 788 W/m2
11:39 32.3 °C 24.5 °C 1014.4 hPa SW 1.8 km/h 8 km/h 63.7% 0 mm 789 W/m2
11:44 32.3 °C 24.6 °C 1014.4 hPa SW 1 km/h 8 km/h 63.7% 0 mm 793 W/m2
11:49 32.4 °C 25.1 °C 1014.4 hPa SW 2.3 km/h 8 km/h 65.1% 0 mm 812 W/m2
11:54 32.6 °C 24.7 °C 1014.4 hPa SW 1.6 km/h 8 km/h 63.1% 0 mm 826 W/m2
11:59 32.7 °C 24.7 °C 1014.4 hPa SW 1.1 km/h 9.7 km/h 62.8% 0 mm 821 W/m2
12:00 32.7 °C 24.7 °C 1014.1 hPa SW 6.4 km/h 9.7 km/h 63% 0 mm 814 W/m2
12:09 32.7 °C 24.8 °C 1014.1 hPa SW 1.9 km/h 9.7 km/h 63.4% 0 mm 821 W/m2
12:14 32.8 °C 24.8 °C 1014.1 hPa SW 2.1 km/h 9.7 km/h 63.1% 0 mm 817 W/m2
12:19 32.7 °C 24.6 °C 1014.1 hPa SW 1.9 km/h 9.7 km/h 62.3% 0 mm 821 W/m2
12:24 32.6 °C 24.6 °C 1014.1 hPa SW 1.9 km/h 9.7 km/h 62.9% 0 mm 826 W/m2
12:29 32.5 °C 24.8 °C 1014.1 hPa SSW 1.8 km/h 9.7 km/h 63.9% 0 mm 831 W/m2
12:34 32.6 °C 24.7 °C 1014.1 hPa WSW 0.6 km/h 9.7 km/h 63.5% 0 mm 837 W/m2
12:39 32.5 °C 24.7 °C 1014.1 hPa West 2.1 km/h 8 km/h 63.6% 0 mm 835 W/m2
12:44 32.4 °C 24.6 °C 1014.1 hPa SW 1 km/h 9.7 km/h 63.5% 0 mm 835 W/m2
12:49 32.4 °C 24.8 °C 1014.1 hPa WSW 0.5 km/h 9.7 km/h 64.3% 0 mm 840 W/m2
12:54 32.4 °C 24.8 °C 1014.1 hPa SW 1.3 km/h 9.7 km/h 64.1% 0 mm 842 W/m2
12:59 32.4 °C 24.8 °C 1014.1 hPa South 1.6 km/h 9.7 km/h 64.3% 0 mm 847 W/m2
13:04 32.4 °C 24.7 °C 1013.8 hPa South 1 km/h 9.7 km/h 64% 0 mm 844 W/m2
13:09 32.4 °C 24.8 °C 1013.8 hPa South 0.6 km/h 4.8 km/h 64.3% 0 mm 851 W/m2
13:14 32.5 °C 25.1 °C 1013.8 hPa SSW 2.4 km/h 9.7 km/h 65% 0 mm 846 W/m2
13:24 32.8 °C 25 °C 1013.4 hPa SW 1.4 km/h 11.3 km/h 63.7% 0 mm 930 W/m2
13:29 32.9 °C 25.2 °C 1013.4 hPa SW 2.6 km/h 14.5 km/h 64% 0 mm 260 W/m2
13:34 32.9 °C 25.1 °C 1013.4 hPa SW 1 km/h 14.5 km/h 63.3% 0 mm 490 W/m2
13:39 33 °C 25.3 °C 1013.4 hPa SW 1.9 km/h 8 km/h 64.2% 0 mm 214 W/m2
13:44 32.9 °C 25.2 °C 1013.4 hPa WSW 1.1 km/h 8 km/h 63.9% 0 mm 243 W/m2
14:04 32.8 °C 25.4 °C 1013.4 hPa SSW 0.2 km/h 11.3 km/h 65.2% 0 mm 800 W/m2
14:09 32.9 °C 25.6 °C 1013.4 hPa SSW 1.8 km/h 6.4 km/h 65.3% 0 mm 823 W/m2
17:30 31.8 °C 25.2 °C 1012.4 hPa WSW 1.6 km/h 11.3 km/h 68% 0 mm 65 W/m2
18:00 30.8 °C 25.4 °C 1012.8 hPa Calm   4.8 km/h 73% 0 mm 30 W/m2
18:30 30.1 °C 25.2 °C 1012.1 hPa Calm   6.4 km/h 75% 0 mm 23 W/m2
19:00 29.8 °C 25.4 °C 1012.1 hPa Calm   4.8 km/h 77% 0 mm 32 W/m2
19:30 29.3 °C 25.1 °C 1012.4 hPa Calm   6.4 km/h 78% 0 mm 35 W/m2
20:04 28.7 °C 24.9 °C 1012.4 hPa Calm     80% 0 mm 0 W/m2
20:09 28.6 °C 24.8 °C 1012.8 hPa Calm     80% 0 mm 0 W/m2
20:14 28.6 °C 24.8 °C 1012.8 hPa Calm     80% 0 mm 0 W/m2
20:19 28.4 °C 24.8 °C 1012.8 hPa Calm   1.6 km/h 80.5% 0 mm 0 W/m2
20:24 28.4 °C 24.8 °C 1013.1 hPa Calm   3.2 km/h 81% 0 mm 0 W/m2
20:29 28.3 °C 24.7 °C 1013.1 hPa Calm   3.2 km/h 81% 0 mm 0 W/m2
20:34 28.3 °C 24.7 °C 1013.1 hPa Calm   3.2 km/h 81.1% 0 mm 0 W/m2
20:39 28.2 °C 24.8 °C 1013.1 hPa Calm   1.6 km/h 82% 0 mm 0 W/m2
20:44 28.1 °C 24.8 °C 1013.1 hPa Calm   1.6 km/h 82% 0 mm 0 W/m2
20:49 28.1 °C 24.7 °C 1013.1 hPa Calm   1.6 km/h 82.2% 0 mm 0 W/m2
20:54 28 °C 24.8 °C 1013.1 hPa Calm   1.6 km/h 82.9% 0 mm 0 W/m2
20:59 27.9 °C 24.8 °C 1013.4 hPa WSW 0.2 km/h 4.8 km/h 83% 0 mm 0 W/m2
21:04 27.8 °C 24.7 °C 1013.4 hPa WSW 0.2 km/h 4.8 km/h 83% 0 mm 0 W/m2
21:09 27.8 °C 24.7 °C 1013.4 hPa Calm   3.2 km/h 83% 0 mm 0 W/m2
21:14 27.7 °C 24.8 °C 1013.4 hPa Calm   3.2 km/h 84% 0 mm 0 W/m2
21:19 27.7 °C 24.7 °C 1013.4 hPa Calm   3.2 km/h 84% 0 mm 0 W/m2
21:24 27.6 °C 24.7 °C 1013.4 hPa WSW 0.2 km/h 3.2 km/h 84% 0 mm 0 W/m2
21:29 27.6 °C 24.6 °C 1013.4 hPa Calm   3.2 km/h 84% 0 mm 0 W/m2
21:34 27.5 °C 24.6 °C 1013.4 hPa Calm   3.2 km/h 84.3% 0 mm 0 W/m2
21:39 27.4 °C 24.7 °C 1013.4 hPa Calm     85% 0 mm 0 W/m2
21:44 27.4 °C 24.7 °C 1013.4 hPa Calm     85% 0 mm 0 W/m2
21:49 27.3 °C 24.6 °C 1013.4 hPa Calm   1.6 km/h 85% 0 mm 0 W/m2
21:54 27.3 °C 24.6 °C 1013.4 hPa Calm   1.6 km/h 85% 0 mm 0 W/m2
21:59 27.3 °C 24.5 °C 1013.4 hPa Calm   1.6 km/h 85% 0 mm 0 W/m2
22:04 27.2 °C 24.5 °C 1013.4 hPa Calm   1.6 km/h 85% 0 mm 0 W/m2
22:09 27.2 °C 24.5 °C 1013.4 hPa Calm     85.3% 0 mm 0 W/m2
22:14 27.1 °C 24.6 °C 1013.8 hPa Calm     86% 0 mm 0 W/m2
22:19 27.1 °C 24.5 °C 1013.8 hPa Calm     86% 0 mm 0 W/m2
22:24 27 °C 24.5 °C 1013.8 hPa Calm     86% 0 mm 0 W/m2
22:29 26.9 °C 24.4 °C 1013.8 hPa Calm     86% 0 mm 0 W/m2
22:34 26.9 °C 24.4 °C 1013.8 hPa Calm     86% 0 mm 0 W/m2
22:39 26.9 °C 24.3 °C 1013.4 hPa Calm     86% 0 mm 0 W/m2
22:44 26.8 °C 24.3 °C 1013.4 hPa Calm     86% 0 mm 0 W/m2
22:49 26.8 °C 24.4 °C 1013.4 hPa Calm     86.6% 0 mm 0 W/m2
22:54 26.7 °C 24.4 °C 1013.4 hPa Calm     87% 0 mm 0 W/m2
22:59 26.7 °C 24.4 °C 1013.4 hPa Calm     87% 0 mm 0 W/m2
23:04 26.7 °C 24.3 °C 1013.1 hPa Calm     87% 0 mm 0 W/m2
23:09 26.7 °C 24.3 °C 1013.1 hPa Calm     87% 0 mm 0 W/m2
23:14 26.6 °C 24.3 °C 1013.1 hPa Calm     87% 0 mm 0 W/m2
23:19 26.6 °C 24.2 °C 1013.1 hPa Calm     87% 0 mm 0 W/m2
23:24 26.6 °C 24.2 °C 1013.1 hPa Calm     87% 0 mm 0 W/m2
23:29 26.5 °C 24.2 °C 1013.1 hPa Calm     87% 0 mm 0 W/m2
23:34 26.4 °C 24.1 °C 1013.1 hPa Calm     87% 0 mm 0 W/m2
23:39 26.4 °C 24.1 °C 1013.1 hPa Calm     87.2% 0 mm 0 W/m2
23:44 26.3 °C 24.2 °C 1013.1 hPa Calm     88% 0 mm 0 W/m2
23:49 26.2 °C 24.1 °C 1013.1 hPa Calm     88% 0 mm 0 W/m2
23:54 26.2 °C 24.1 °C 1013.1 hPa Calm     88% 0 mm 0 W/m2
23:59 26.1 °C 24 °C 1013.1 hPa Calm     88% 0 mm 0 W/m2
Hartford County Weather
Compliments of Weather Underground - 2 mb